Terminal Aerodrome Forecast
Issued by NWS

Home | Current Version | Previous Version | Text Only | Print | Product List | Glossary On
Versions: 1 2 3 4 5 6 7 8 9 10 11 12 13 14 15 16 17 18 19 20 21 22 23 24
000
FTUS43 KDDC 271947 AAB
TAFHYS
TAF AMD
KHYS 271947Z 2720/2818 32011KT P6SM BKN035 OVC080
     FM272300 35019G29KT P6SM BKN035
     FM280400 35009KT P6SM BKN070=

USA.gov is the U.S. government's official web portal to all federal, state and local government web resources and services.